Time;durP1;ratioP1;P1;durP2;ratioP2;P2;SDS_P1;SDS_P2;PMS_P1;PMS_P2;Temp;Humidity;BMP_temperature;BMP_pressure;BME280_temperature;BME280_humidity;BME280_pressure;Samples;Min_cycle;Max_cycle;Signal;HPM_P1;HPM_P2
2022/09/01 00:02:07;;;;;;;6.95;2.50;;;;;;;17.40;61.71;100735.97;6059567;23;96775;-82
2022/09/01 00:04:37;;;;;;;6.32;2.70;;;;;;;17.41;62.16;100737.69;6038013;23;96970;-83
2022/09/01 00:07:04;;;;;;;4.82;2.30;;;;;;;17.33;61.68;100730.16;6062873;23;96934;-83
2022/09/01 00:09:30;;;;;;;7.15;2.45;;;;;;;17.45;62.11;100733.91;6014688;23;101771;-83
2022/09/01 00:11:55;;;;;;;4.53;2.20;;;;;;;17.35;61.93;100748.66;6011811;23;101335;-83
2022/09/01 00:14:24;;;;;;;3.65;2.25;;;;;;;17.32;62.06;100733.75;6038396;23;97471;-83
2022/09/01 00:16:49;;;;;;;6.00;2.72;;;;;;;17.36;61.43;100739.72;6037131;23;97314;-87
2022/09/01 00:19:15;;;;;;;4.53;2.33;;;;;;;17.23;61.31;100728.97;6038059;23;101476;-83
2022/09/01 00:21:43;;;;;;;3.22;2.15;;;;;;;17.33;61.23;100742.56;6037681;23;101448;-83
2022/09/01 00:24:09;;;;;;;5.15;2.25;;;;;;;17.25;61.27;100735.03;6037607;23;96705;-83
2022/09/01 00:26:35;;;;;;;4.20;2.60;;;;;;;17.35;61.39;100744.19;6038543;23;96908;-83
2022/09/01 00:29:01;;;;;;;4.88;2.10;;;;;;;17.30;61.38;100753.34;6037714;23;101629;-83
2022/09/01 00:31:27;;;;;;;4.03;2.03;;;;;;;17.29;61.44;100741.88;6063287;23;98398;-84
2022/09/01 00:33:53;;;;;;;5.18;2.08;;;;;;;17.24;61.05;100727.16;6061327;23;96662;-87
2022/09/01 00:36:19;;;;;;;3.58;1.95;;;;;;;17.26;61.08;100736.75;6036965;23;96858;-84
2022/09/01 00:38:45;;;;;;;5.90;2.00;;;;;;;17.30;61.28;100748.88;6036829;23;101309;-82
2022/09/01 00:41:12;;;;;;;6.78;2.20;;;;;;;17.24;60.98;100740.41;6013582;23;100714;-83
2022/09/01 00:43:43;;;;;;;3.22;2.08;;;;;;;17.27;61.22;100748.22;6062533;23;97207;-83
2022/09/01 00:46:13;;;;;;;;;;;;;;;17.23;61.18;100742.22;6038070;23;96911;-82
2022/09/01 00:48:39;;;;;;;5.53;2.00;;;;;;;17.20;61.21;100726.47;6014152;23;101542;-83
2022/09/01 00:51:07;;;;;;;4.50;1.95;;;;;;;17.20;61.00;100734.44;6013450;23;100899;-83
2022/09/01 00:53:33;;;;;;;3.72;1.80;;;;;;;17.23;61.18;100746.69;6036871;23;97190;-82
2022/09/01 00:55:59;;;;;;;4.10;2.33;;;;;;;17.23;60.92;100742.22;6038103;23;96975;-83
2022/09/01 00:58:25;;;;;;;3.58;2.42;;;;;;;17.25;60.83;100726.19;6038313;23;98328;-82
2022/09/01 01:00:52;;;;;;;7.43;1.90;;;;;;;17.25;60.63;100740.34;6038310;23;99644;-83
2022/09/01 01:03:17;;;;;;;3.25;2.15;;;;;;;17.20;60.93;100723.81;6036506;23;97416;-83
2022/09/01 01:05:52;;;;;;;6.25;2.38;;;;;;;17.13;60.89;100714.47;6038537;23;96748;-82
2022/09/01 01:08:26;;;;;;;4.32;1.83;;;;;;;17.24;60.91;100729.81;6012645;23;101807;-83
2022/09/01 01:10:52;;;;;;;8.23;2.53;;;;;;;17.25;60.87;100728.84;6062975;23;97870;-87
2022/09/01 01:13:19;;;;;;;4.93;1.90;;;;;;;17.31;60.73;100728.53;6037127;23;96833;-83
2022/09/01 01:15:45;;;;;;;4.78;1.67;;;;;;;17.27;60.88;100727.84;6014693;23;97041;-82
2022/09/01 01:18:13;;;;;;;7.22;2.22;;;;;;;17.29;60.91;100727.75;6039093;23;101501;-82
2022/09/01 01:23:44;;;;;;;5.10;2.08;;;;;;;17.30;60.73;100729.47;6043125;23;96747;-82
2022/09/01 01:26:10;;;;;;;4.60;2.63;;;;;;;17.27;60.57;100721.69;6037583;23;96870;-83
2022/09/01 01:28:38;;;;;;;4.63;2.10;;;;;;;17.23;60.73;100710.38;6037790;23;101067;-83
2022/09/01 01:31:13;;;;;;;4.72;2.00;;;;;;;17.28;60.59;100729.56;6038593;23;101394;-83
2022/09/01 01:33:47;;;;;;;4.03;2.15;;;;;;;17.00;60.67;100690.44;6039366;23;96637;-82
2022/09/01 01:36:16;;;;;;;6.93;2.15;;;;;;;17.23;60.52;100725.47;6017991;23;96969;-82
2022/09/01 01:38:45;;;;;;;3.30;1.75;;;;;;;17.29;60.27;100733.06;6010644;23;98509;-82
2022/09/01 01:41:12;;;;;;;3.58;2.00;;;;;;;17.30;60.20;100729.47;5984586;23;101135;-83
2022/09/01 01:43:38;;;;;;;3.72;1.90;;;;;;;17.24;60.61;100725.34;6008515;23;96713;-83
2022/09/01 01:46:06;;;;;;;3.05;1.88;;;;;;;17.18;60.77;100720.38;6009883;23;96929;-82
2022/09/01 01:48:38;;;;;;;2.92;1.80;;;;;;;17.10;60.79;100714.66;6010548;23;101794;-82
2022/09/01 01:51:04;;;;;;;4.95;1.85;;;;;;;17.28;61.06;100728.69;5985884;23;100612;-82
2022/09/01 01:53:31;;;;;;;5.95;2.13;;;;;;;17.31;60.55;100729.41;6009332;23;97794;-83
2022/09/01 01:55:58;;;;;;;4.78;1.80;;;;;;;17.10;60.92;100709.34;6010075;23;97058;-88
2022/09/01 01:58:27;;;;;;;3.40;1.92;;;;;;;17.16;60.93;100709.00;6009867;23;99974;-82
2022/09/01 02:00:55;;;;;;;4.40;1.90;;;;;;;17.15;60.64;100710.81;5986020;23;99997;-82
2022/09/01 02:03:25;;;;;;;2.83;1.60;;;;;;;17.19;60.88;100717.66;5986306;23;96952;-82
2022/09/01 02:05:52;;;;;;;3.13;2.17;;;;;;;17.24;60.68;100722.69;6010313;23;96920;-84
2022/09/01 02:08:20;;;;;;;3.35;1.88;;;;;;;17.20;60.71;100718.50;6009391;23;100979;-83
2022/09/01 02:10:48;;;;;;;4.40;1.90;;;;;;;17.14;60.48;100703.78;6010663;23;101576;-83
2022/09/01 02:13:16;;;;;;;4.40;1.90;;;;;;;17.18;60.37;100709.78;5985558;23;96609;-83
2022/09/01 02:16:06;;;;;;;3.85;1.83;;;;;;;17.18;60.55;100718.59;6009317;23;97163;-83
2022/09/01 02:18:35;;;;;;;7.63;2.30;;;;;;;17.15;60.65;100707.28;5986489;23;101757;-82
2022/09/01 02:21:07;;;;;;;2.97;1.88;;;;;;;17.17;60.89;100702.78;6009370;23;101152;-83
2022/09/01 02:23:32;;;;;;;3.22;2.17;;;;;;;17.17;60.75;100703.63;6033975;23;96668;-82
2022/09/01 02:26:01;;;;;;;7.20;1.95;;;;;;;17.18;60.78;100713.28;6009906;23;96882;-88
2022/09/01 02:28:30;;;;;;;5.60;2.25;;;;;;;17.17;60.43;100710.72;6009067;23;100114;-83
2022/09/01 02:30:58;;;;;;;7.75;2.05;;;;;;;17.14;60.42;100706.44;6009922;23;101316;-87
2022/09/01 02:33:25;;;;;;;5.28;2.10;;;;;;;17.19;60.84;100706.16;6009553;23;97315;-82
2022/09/01 02:35:56;;;;;;;4.88;2.00;;;;;;;17.16;60.84;100711.66;6025921;23;97093;-84
2022/09/01 02:38:24;;;;;;;;;;;;;;;17.10;60.38;100714.66;6038900;23;101514;-83
2022/09/01 02:40:52;;;;;;;3.70;1.98;;;;;;;17.12;60.66;100707.47;6015519;23;101521;-83
2022/09/01 02:43:19;;;;;;;3.50;1.65;;;;;;;17.01;60.54;100693.94;6037972;23;97514;-83
2022/09/01 02:45:54;;;;;;;4.03;1.73;;;;;;;17.12;60.58;100716.28;6039289;23;97144;-83
2022/09/01 02:48:25;;;;;;;2.47;1.60;;;;;;;17.01;60.30;100700.09;6013439;23;100768;-82
2022/09/01 02:50:51;;;;;;;3.43;1.50;;;;;;;17.12;60.68;100720.72;6063238;23;98989;-82
2022/09/01 02:53:18;;;;;;;3.50;1.70;;;;;;;17.11;60.56;100721.69;6038005;23;97007;-83
2022/09/01 02:55:45;;;;;;;2.67;1.60;;;;;;;17.03;60.36;100708.81;6039389;23;96743;-83
2022/09/01 02:58:18;;;;;;;2.45;1.60;;;;;;;17.04;60.82;100707.03;6038299;23;98624;-83
2022/09/01 03:00:52;;;;;;;5.10;1.83;;;;;;;17.08;60.44;100719.19;6040288;23;98433;-83
2022/09/01 03:03:18;;;;;;;3.30;1.80;;;;;;;17.11;60.63;100729.63;6037070;23;96721;-83
2022/09/01 03:05:44;;;;;;;4.18;1.58;;;;;;;17.08;60.57;100717.41;6012070;23;97330;-83
2022/09/01 03:08:13;;;;;;;5.90;1.95;;;;;;;17.07;60.71;100718.31;6034968;23;101437;-83
2022/09/01 03:10:41;;;;;;;5.70;1.90;;;;;;;17.10;60.39;100722.59;6013979;23;100942;-82
2022/09/01 03:13:11;;;;;;;3.42;1.98;;;;;;;17.03;60.66;100721.25;6036371;23;96961;-82
2022/09/01 03:15:37;;;;;;;3.75;1.85;;;;;;;16.93;60.38;100699.69;6037655;23;96954;-83
2022/09/01 03:18:04;;;;;;;6.35;2.63;;;;;;;17.07;60.76;100717.47;6014385;23;101082;-83
2022/09/01 03:20:32;;;;;;;4.68;2.15;;;;;;;17.05;60.79;100712.25;6039114;23;100497;-83
2022/09/01 03:23:03;;;;;;;6.97;1.88;;;;;;;16.90;60.71;100692.75;6036728;23;97036;-88
2022/09/01 03:25:30;;;;;;;5.90;2.08;;;;;;;17.06;60.45;100716.63;6039434;23;96776;-83
2022/09/01 03:28:00;;;;;;;5.95;2.03;;;;;;;17.07;60.79;100710.34;6062389;23;97924;-90
2022/09/01 03:30:30;;;;;;;4.90;2.30;;;;;;;16.98;60.84;100705.56;6039410;23;100657;-82
2022/09/01 03:32:57;;;;;;;4.15;1.73;;;;;;;16.96;61.13;100710.97;6037040;23;97131;-82
2022/09/01 03:35:24;;;;;;;4.50;1.90;;;;;;;16.98;60.95;100716.16;6004403;23;96964;-83
2022/09/01 03:37:51;;;;;;;3.35;2.05;;;;;;;17.02;61.39;100724.84;6009360;23;100678;-85
2022/09/01 03:40:17;;;;;;;4.65;1.80;;;;;;;17.01;61.04;100723.09;6008308;23;101297;-84
2022/09/01 03:42:44;;;;;;;3.92;1.98;;;;;;;17.03;60.86;100729.19;6008794;23;96999;-83
2022/09/01 03:45:14;;;;;;;6.85;2.03;;;;;;;16.96;61.17;100726.88;6009201;23;96868;-82
2022/09/01 03:47:41;;;;;;;5.78;2.15;;;;;;;17.02;60.87;100733.66;5986254;23;100958;-84
2022/09/01 03:50:19;;;;;;;4.32;1.92;;;;;;;17.02;60.77;100728.34;5985631;23;99628;-82
2022/09/01 03:52:57;;;;;;;2.75;1.88;;;;;;;16.87;60.81;100705.28;6034523;23;96630;-83
2022/09/01 03:55:30;;;;;;;3.25;1.83;;;;;;;16.93;61.34;100723.53;6010147;23;96934;-83
2022/09/01 03:58:05;;;;;;;4.65;1.67;;;;;;;17.01;61.32;100725.75;6008413;23;101148;-84
2022/09/01 04:00:34;;;;;;;7.93;2.05;;;;;;;16.92;61.38;100729.75;6010114;23;98258;-82
2022/09/01 04:03:03;;;;;;;5.20;2.10;;;;;;;17.03;61.53;100729.19;5984788;23;96967;-85
2022/09/01 04:05:32;;;;;;;6.47;2.22;;;;;;;17.05;61.58;100735.28;5985382;23;96898;-83
2022/09/01 04:08:02;;;;;;;4.82;2.08;;;;;;;17.02;61.28;100727.50;5985612;23;101660;-84
2022/09/01 04:10:31;;;;;;;4.57;1.95;;;;;;;16.98;61.41;100732.09;5986089;23;101601;-82
2022/09/01 04:12:58;;;;;;;5.05;2.45;;;;;;;16.80;61.53;100715.38;6009613;23;96728;-83
2022/09/01 04:15:25;;;;;;;8.07;2.78;;;;;;;16.92;61.52;100732.41;6009076;23;97432;-84
2022/09/01 04:18:08;;;;;;;4.82;2.40;;;;;;;16.85;61.59;100728.41;6008248;23;101553;-82
2022/09/01 04:20:55;;;;;;;6.40;2.47;;;;;;;16.81;61.59;100719.72;6012707;23;101566;-83
2022/09/01 04:23:25;;;;;;;8.65;2.22;;;;;;;16.88;61.63;100729.09;6008362;23;97536;-83
2022/09/01 04:26:13;;;;;;;6.35;2.05;;;;;;;16.84;61.90;100724.91;5985544;23;97267;-83
2022/09/01 04:28:47;;;;;;;6.03;2.10;;;;;;;16.73;61.98;100698.06;5984250;23;100815;-82
2022/09/01 04:31:17;;;;;;;8.15;2.25;;;;;;;16.94;61.68;100720.78;5983856;23;101048;-83
2022/09/01 04:33:45;;;;;;;14.30;3.00;;;;;;;16.89;61.57;100724.63;6007036;23;96797;-84
2022/09/01 04:36:22;;;;;;;7.90;2.47;;;;;;;16.96;61.46;100734.84;6027425;23;97116;-82
2022/09/01 04:38:57;;;;;;;20.55;2.50;;;;;;;16.87;61.71;100731.81;6037434;23;99810;-82
2022/09/01 04:41:29;;;;;;;6.32;2.30;;;;;;;16.88;61.63;100729.09;6014762;23;101345;-83
2022/09/01 04:44:00;;;;;;;8.60;3.00;;;;;;;16.85;61.26;100712.50;6014664;23;97103;-85
2022/09/01 04:46:30;;;;;;;10.65;2.70;;;;;;;16.90;61.38;100719.25;6037726;23;96672;-83
2022/09/01 04:48:57;;;;;;;6.43;2.40;;;;;;;16.95;61.65;100725.16;6038807;23;101365;-83
2022/09/01 04:51:26;;;;;;;7.30;2.20;;;;;;;16.88;61.27;100709.66;6059681;23;98088;-84
2022/09/01 04:53:56;;;;;;;10.50;2.53;;;;;;;16.85;61.50;100710.69;6014977;23;97285;-84
2022/09/01 04:56:24;;;;;;;7.85;2.50;;;;;;;17.00;61.98;100730.22;6038953;23;97078;-83
2022/09/01 04:59:12;;;;;;;26.65;3.60;;;;;;;17.12;61.70;100734.84;6066717;23;99013;-83
2022/09/01 05:01:45;;;;;;;9.60;2.50;;;;;;;17.13;61.66;100741.88;6037797;23;101058;-85
2022/09/01 05:04:17;;;;;;;8.57;2.53;;;;;;;17.10;61.52;100733.22;6038497;23;97007;-83
2022/09/01 05:06:48;;;;;;;12.23;2.40;;;;;;;17.13;61.39;100736.56;6038046;23;97123;-83
2022/09/01 05:09:16;;;;;;;12.20;2.47;;;;;;;17.20;61.70;100745.03;6036147;23;101732;-83
2022/09/01 05:12:09;;;;;;;7.03;2.63;;;;;;;17.11;61.77;100738.44;6025812;23;97673;-83
2022/09/01 05:14:42;;;;;;;6.82;2.45;;;;;;;17.20;61.02;100739.75;6038436;23;97618;-83
2022/09/01 05:17:09;;;;;;;14.07;2.60;;;;;;;17.18;61.15;100731.00;6038612;23;97222;-85
2022/09/01 05:19:37;;;;;;;7.75;2.70;;;;;;;17.30;61.19;100732.97;6038983;23;101320;-84
2022/09/01 05:22:03;;;;;;;9.32;2.60;;;;;;;17.38;60.64;100737.84;6039000;23;101149;-88
2022/09/01 05:24:31;;;;;;;9.15;2.90;;;;;;;17.41;60.69;100738.53;6036756;23;96920;-83
2022/09/01 05:27:00;;;;;;;10.50;2.40;;;;;;;17.32;60.92;100715.19;6014771;23;97044;-84
2022/09/01 05:29:28;;;;;;;3.28;2.25;;;;;;;17.40;60.25;100733.34;6037236;23;101680;-83
2022/09/01 05:31:54;;;;;;;9.05;2.95;;;;;;;17.49;60.17;100737.28;6038100;23;101236;-85
2022/09/01 05:34:25;;;;;;;13.20;3.00;;;;;;;17.48;60.19;100724.91;6039431;23;96957;-88
2022/09/01 05:36:54;;;;;;;6.95;2.58;;;;;;;17.61;60.12;100734.75;6011395;23;96825;-83
2022/09/01 05:39:20;;;;;;;7.93;2.08;;;;;;;17.55;59.55;100732.47;5984890;23;100728;-83
2022/09/01 05:41:48;;;;;;;12.90;2.80;;;;;;;17.60;59.71;100740.19;5983615;23;101085;-85
2022/09/01 05:44:17;;;;;;;10.43;2.97;;;;;;;17.71;59.19;100723.63;6008674;23;97055;-82
2022/09/01 05:46:43;;;;;;;5.25;2.20;;;;;;;17.61;59.37;100726.81;6008756;23;96830;-82
2022/09/01 05:49:14;;;;;;;6.78;2.58;;;;;;;17.53;59.05;100714.91;5983920;23;102026;-81
2022/09/01 05:51:43;;;;;;;4.40;2.13;;;;;;;17.82;58.95;100751.28;5985147;23;101582;-81
2022/09/01 05:54:10;;;;;;;5.82;2.10;;;;;;;17.64;59.25;100717.81;6009110;23;96596;-81
2022/09/01 05:56:39;;;;;;;9.82;3.22;;;;;;;17.80;58.74;100734.63;6008226;23;97053;-81
2022/09/01 05:59:06;;;;;;;3.67;2.45;;;;;;;17.78;58.51;100730.34;6004881;23;101305;-78
2022/09/01 06:01:33;;;;;;;5.13;2.10;;;;;;;18.02;58.43;100750.16;5982898;23;103150;-79
2022/09/01 06:04:06;;;;;;;5.57;2.10;;;;;;;18.17;58.71;100760.81;6010598;23;97187;-79
2022/09/01 06:06:39;;;;;;;8.75;2.60;;;;;;;18.08;58.10;100757.75;6008625;23;97057;-81
2022/09/01 06:09:06;;;;;;;8.73;2.70;;;;;;;18.24;57.81;100759.53;6008003;23;101780;-80
2022/09/01 06:11:32;;;;;;;6.68;2.35;;;;;;;18.19;58.00;100756.28;5984752;23;101188;-80
2022/09/01 06:13:59;;;;;;;7.10;2.35;;;;;;;18.13;58.00;100759.31;5984503;23;97144;-83
2022/09/01 06:16:27;;;;;;;3.40;1.80;;;;;;;18.28;58.04;100763.72;5983925;23;97348;-81
2022/09/01 06:18:54;;;;;;;7.75;2.42;;;;;;;18.22;57.53;100761.41;5984617;23;101038;-80
2022/09/01 06:21:21;;;;;;;7.18;2.10;;;;;;;18.37;57.35;100763.16;6008664;23;101274;-81
2022/09/01 06:23:49;;;;;;;5.65;2.22;;;;;;;18.76;56.24;100745.75;6008292;23;97269;-81
2022/09/01 06:26:27;;;;;;;7.50;1.98;;;;;;;18.99;55.81;100768.28;6008496;23;97395;-80
2022/09/01 06:28:58;;;;;;;5.47;2.20;;;;;;;18.99;54.96;100763.84;6009247;23;99632;-81
2022/09/01 06:31:28;;;;;;;6.35;2.47;;;;;;;19.02;55.05;100737.97;6005570;23;101471;-82
2022/09/01 06:33:56;;;;;;;6.25;2.25;;;;;;;19.57;54.71;100756.59;6007534;23;97343;-81
2022/09/01 06:36:22;;;;;;;5.07;2.28;;;;;;;20.22;53.45;100753.25;6029316;23;97179;-82
2022/09/01 06:38:50;;;;;;;10.95;1.90;;;;;;;21.41;52.13;100761.88;6012409;23;99515;-78
2022/09/01 06:41:18;;;;;;;8.07;1.92;;;;;;;21.17;51.85;100756.47;6035828;23;101304;-80
2022/09/01 06:43:53;;;;;;;13.02;3.63;;;;;;;21.54;51.90;100764.53;6036793;23;96736;-80
2022/09/01 06:46:22;;;;;;;5.95;1.70;;;;;;;21.91;49.66;100768.03;6038003;23;96755;-81
2022/09/01 06:48:48;;;;;;;6.93;2.05;;;;;;;23.31;46.71;100755.44;6033636;23;101349;-81
2022/09/01 06:51:20;;;;;;;8.02;2.30;;;;;;;24.20;43.71;100752.63;6035863;23;101883;-81
2022/09/01 06:53:55;;;;;;;5.30;2.00;;;;;;;24.08;44.28;100759.88;6012624;23;97663;-82
2022/09/01 06:56:23;;;;;;;3.95;1.70;;;;;;;22.79;46.15;100763.06;6014581;23;98154;-81
2022/09/01 06:58:51;;;;;;;5.32;1.85;;;;;;;22.55;47.34;100773.88;6036325;23;101871;-82
2022/09/01 07:01:19;;;;;;;7.32;2.40;;;;;;;22.76;47.38;100766.00;6012273;23;101255;-81
2022/09/01 07:03:51;;;;;;;4.43;1.67;;;;;;;24.46;43.17;100755.81;6014155;23;96752;-81
2022/09/01 07:06:40;;;;;;;4.75;2.08;;;;;;;24.89;42.34;100755.63;6053243;23;98585;-82
2022/09/01 07:09:15;;;;;;;7.95;1.85;;;;;;;27.00;39.09;100759.63;6039666;23;97856;-81
2022/09/01 07:11:44;;;;;;;4.90;1.73;;;;;;;27.80;36.63;100754.53;6035389;23;101165;-82
2022/09/01 07:14:10;;;;;;;4.50;1.80;;;;;;;26.46;38.63;100744.16;6010543;23;97077;-80
2022/09/01 07:16:39;;;;;;;7.82;2.10;;;;;;;26.78;38.58;100752.75;6011414;23;96816;-81
2022/09/01 07:19:11;;;;;;;7.43;2.10;;;;;;;27.94;36.69;100750.47;6035641;23;101976;-82
2022/09/01 07:21:41;;;;;;;4.50;2.33;;;;;;;28.88;35.48;100764.16;6037082;23;99715;-81
2022/09/01 07:24:09;;;;;;;4.43;1.77;;;;;;;26.98;38.20;100771.53;6037190;23;96970;-80
2022/09/01 07:26:35;;;;;;;4.07;1.73;;;;;;;26.17;40.16;100769.25;6036453;23;97059;-80
2022/09/01 07:29:04;;;;;;;9.38;2.47;;;;;;;24.96;42.13;100753.25;6035741;23;101309;-82
2022/09/01 07:31:39;;;;;;;3.80;1.90;;;;;;;24.28;42.81;100761.72;6035119;23;101566;-80
2022/09/01 07:34:09;;;;;;;6.57;1.60;;;;;;;24.77;42.37;100776.34;6033118;23;96887;-80
2022/09/01 07:36:36;;;;;;;4.53;1.70;;;;;;;23.74;44.22;100776.09;6010827;23;96909;-83
2022/09/01 07:39:03;;;;;;;5.07;2.00;;;;;;;23.45;44.41;100762.38;6006650;23;101695;-82
2022/09/01 07:41:28;;;;;;;3.17;1.70;;;;;;;24.32;43.55;100755.13;6006722;23;101180;-81
2022/09/01 07:44:29;;;;;;;4.53;1.90;;;;;;;24.27;43.39;100776.13;5993328;23;97432;-82
2022/09/01 07:47:14;;;;;;;4.00;2.10;;;;;;;24.01;43.66;100782.84;6035619;23;96716;-83
2022/09/01 07:49:40;;;;;;;2.85;1.67;;;;;;;24.46;42.75;100769.22;5980709;23;101554;-82
2022/09/01 07:52:06;;;;;;;4.05;1.75;;;;;;;24.80;42.46;100770.72;5983033;23;101274;-82
2022/09/01 07:54:36;;;;;;;4.10;1.55;;;;;;;25.19;40.92;100776.31;5980535;23;96862;-81
2022/09/01 07:57:02;;;;;;;2.53;1.65;;;;;;;25.86;39.83;100769.41;6005348;23;97405;-81
2022/09/01 07:59:29;;;;;;;5.32;1.95;;;;;;;26.57;38.27;100749.41;6003072;23;101721;-80
2022/09/01 08:02:13;;;;;;;6.03;2.17;;;;;;;30.60;33.21;100756.47;5986387;23;99302;-79
2022/09/01 08:04:40;;;;;;;3.00;1.40;;;;;;;32.86;30.50;100760.00;6003033;23;97105;-81
2022/09/01 08:07:09;;;;;;;4.80;1.80;;;;;;;33.96;28.38;100759.91;5979313;23;97808;-82
2022/09/01 08:09:36;;;;;;;3.33;1.45;;;;;;;33.62;28.65;100759.78;5981858;23;101891;-82
2022/09/01 08:12:04;;;;;;;3.92;1.63;;;;;;;34.76;27.17;100746.97;5980253;23;100993;-85
2022/09/01 08:14:33;;;;;;;7.38;1.52;;;;;;;35.51;27.00;100758.88;5983413;23;97254;-89
2022/09/01 08:16:58;;;;;;;4.30;1.42;;;;;;;35.43;25.04;100758.22;6029064;23;97163;-82
2022/09/01 08:19:24;;;;;;;2.22;1.35;;;;;;;35.07;25.43;100751.16;5980998;23;101103;-82
2022/09/01 08:22:12;;;;;;;3.40;1.20;;;;;;;35.03;25.33;100761.59;5987969;23;101617;-83
2022/09/01 08:24:47;;;;;;;3.35;1.30;;;;;;;34.34;26.03;100759.66;6006554;23;97229;-83
2022/09/01 08:27:13;;;;;;;2.45;1.20;;;;;;;34.44;26.13;100749.25;6000652;23;97272;-83
2022/09/01 08:29:38;;;;;;;2.53;1.40;;;;;;;32.14;27.96;100765.94;5982574;23;102006;-83
2022/09/01 08:32:04;;;;;;;1.98;1.10;;;;;;;33.51;26.99;100764.69;5984085;23;101200;-82
2022/09/01 08:34:31;;;;;;;3.60;1.40;;;;;;;34.67;26.23;100759.06;5982917;23;97231;-81
2022/09/01 08:36:57;;;;;;;2.75;1.40;;;;;;;34.94;24.79;100762.81;5984407;23;97014;-81
2022/09/01 08:39:22;;;;;;;1.85;1.17;;;;;;;35.05;24.90;100755.97;6007738;23;101650;-85
2022/09/01 08:42:00;;;;;;;4.68;1.50;;;;;;;35.02;25.33;100759.91;6008894;23;101044;-85
2022/09/01 08:44:48;;;;;;;6.43;1.30;;;;;;;32.31;28.87;100761.22;6009549;23;97060;-85
2022/09/01 08:47:16;;;;;;;3.15;1.85;;;;;;;33.81;27.33;100753.69;6009136;23;96906;-81
2022/09/01 08:49:45;;;;;;;2.70;1.02;;;;;;;33.20;27.33;100761.34;6008123;23;98295;-80
2022/09/01 08:53:20;;;;;;;3.42;1.20;;;;;;;30.12;30.54;100768.16;6020451;23;99143;-82
2022/09/01 08:55:47;;;;;;;2.60;1.05;;;;;;;31.75;29.05;100756.03;6008592;23;97136;-88
2022/09/01 08:58:16;;;;;;;2.00;1.40;;;;;;;34.33;26.13;100762.59;6008829;23;96972;-83
2022/09/01 09:01:18;;;;;;;3.03;1.10;;;;;;;35.02;24.95;100756.34;6017470;23;98560;-83
2022/09/01 09:04:12;;;;;;;3.95;1.45;;;;;;;34.32;25.93;100755.44;6008919;23;100499;-83
2022/09/01 09:06:44;;;;;;;4.53;1.65;;;;;;;35.38;25.18;100758.84;6059030;23;96650;-83
2022/09/01 09:09:09;;;;;;;5.72;1.75;;;;;;;35.85;25.09;100745.34;6008896;23;96782;-83
2022/09/01 09:12:14;;;;;;;5.03;1.45;;;;;;;33.04;26.58;100759.66;6031436;23;101032;-83
2022/09/01 09:15:01;;;;;;;3.30;1.45;;;;;;;30.82;30.17;100765.75;6031344;23;99469;-83
2022/09/01 09:17:36;;;;;;;1.40;1.02;;;;;;;28.99;31.16;100752.22;6008325;23;97062;-83
2022/09/01 09:20:03;;;;;;;4.20;1.30;;;;;;;28.24;32.50;100757.28;5985940;23;96760;-83
2022/09/01 09:22:30;;;;;;;2.45;1.00;;;;;;;27.37;33.60;100739.03;6031779;23;97935;-83
2022/09/01 09:25:13;;;;;;;1.33;0.98;;;;;;;26.61;35.11;100772.34;6008864;23;101205;-84
2022/09/01 09:27:41;;;;;;;2.20;1.33;;;;;;;28.91;33.04;100760.28;6008219;23;97060;-84
2022/09/01 09:30:08;;;;;;;4.72;1.60;;;;;;;31.54;29.71;100759.38;6009362;23;97060;-83
2022/09/01 09:32:59;;;;;;;2.85;1.27;;;;;;;32.40;28.21;100749.25;6031964;23;98572;-84
2022/09/01 09:35:36;;;;;;;5.13;1.20;;;;;;;30.64;29.24;100759.69;6017285;23;101195;-83
2022/09/01 09:38:30;;;;;;;1.40;1.05;;;;;;;30.25;30.03;100757.66;6061084;23;97133;-81
2022/09/01 09:41:18;;;;;;;4.35;1.38;;;;;;;31.74;29.08;100751.63;6088015;23;97231;-81
2022/09/01 09:43:48;;;;;;;1.95;1.13;;;;;;;33.44;26.86;100733.78;6037485;23;101380;-81
2022/09/01 09:46:39;;;;;;;4.45;1.30;;;;;;;33.85;26.08;100749.53;6061581;23;100849;-84
2022/09/01 09:49:09;;;;;;;2.25;1.25;;;;;;;33.01;27.47;100746.44;6037832;23;97075;-80
2022/09/01 09:51:39;;;;;;;3.60;1.05;;;;;;;32.87;27.69;100737.22;6036841;23;97407;-79
2022/09/01 09:54:21;;;;;;;;;;;;;;;30.93;30.08;100747.44;6012887;23;100653;-80
2022/09/01 09:56:48;;;;;;;3.15;1.00;;;;;;;29.71;31.20;100724.81;6012985;23;101256;-81
2022/09/01 09:59:22;;;;;;;2.65;1.17;;;;;;;28.80;32.28;100747.09;6061728;23;96612;-84
2022/09/01 10:01:50;;;;;;;3.75;1.10;;;;;;;27.83;32.36;100740.75;6037245;23;97293;-78
2022/09/01 10:04:32;;;;;;;2.13;1.30;;;;;;;27.16;34.11;100732.06;6037025;23;101317;-82
2022/09/01 10:06:58;;;;;;;2.65;1.23;;;;;;;26.92;35.29;100750.59;6062163;23;97176;-78
2022/09/01 10:09:24;;;;;;;2.97;1.23;;;;;;;26.74;34.75;100751.34;6011855;23;97286;-78
2022/09/01 10:11:56;;;;;;;3.67;1.00;;;;;;;25.82;35.26;100733.03;6062326;23;97045;-78
2022/09/01 10:14:24;;;;;;;3.38;0.93;;;;;;;25.33;36.19;100750.88;6036280;23;101142;-79
2022/09/01 10:16:55;;;;;;;2.78;1.17;;;;;;;25.02;36.39;100745.53;6060116;23;97853;-77
2022/09/01 10:19:21;;;;;;;2.35;1.02;;;;;;;25.00;37.03;100752.00;6059292;23;97476;-78
2022/09/01 10:21:47;;;;;;;1.20;0.90;;;;;;;25.55;36.72;100751.66;6061206;23;97495;-77
2022/09/01 10:24:17;;;;;;;2.45;1.02;;;;;;;26.61;36.74;100743.56;6033518;23;101216;-77
2022/09/01 10:26:46;;;;;;;1.00;0.90;;;;;;;26.73;37.22;100744.25;6033582;23;100089;-78
2022/09/01 10:29:15;;;;;;;2.67;0.90;;;;;;;26.11;38.15;100740.25;6085145;23;97282;-77
2022/09/01 10:31:41;;;;;;;5.20;1.40;;;;;;;25.94;37.45;100736.41;6057645;23;97122;-77
2022/09/01 10:34:12;;;;;;;1.75;1.08;;;;;;;25.36;37.92;100747.06;6033605;23;101342;-77
2022/09/01 10:36:41;;;;;;;6.35;1.23;;;;;;;25.13;38.75;100741.03;6008781;23;101127;-78
2022/09/01 10:39:10;;;;;;;4.70;1.50;;;;;;;25.10;38.84;100744.81;6005848;23;97043;-77
2022/09/01 10:41:53;;;;;;;5.07;1.38;;;;;;;24.93;39.25;100746.34;5978302;23;97449;-78
2022/09/01 10:44:32;;;;;;;2.35;1.23;;;;;;;24.46;38.15;100753.97;6028470;23;101301;-83
2022/09/01 10:47:00;;;;;;;2.22;1.00;;;;;;;24.28;37.48;100737.59;6006567;23;101206;-77
2022/09/01 10:49:29;;;;;;;5.32;1.10;;;;;;;24.24;37.58;100757.63;6029650;23;96960;-81
2022/09/01 10:51:56;;;;;;;4.03;1.70;;;;;;;24.31;38.02;100752.56;6024438;23;97345;-78
2022/09/01 10:54:40;;;;;;;2.65;1.15;;;;;;;24.17;38.62;100751.06;5980429;23;101426;-77
2022/09/01 10:57:11;;;;;;;3.33;0.90;;;;;;;24.18;37.62;100744.72;6055374;23;97620;-76
2022/09/01 10:59:37;;;;;;;1.58;0.90;;;;;;;24.10;37.77;100739.16;6029109;23;96662;-75
2022/09/01 11:02:10;;;;;;;3.22;1.50;;;;;;;23.84;37.67;100730.63;6005686;23;97252;-80
2022/09/01 11:04:38;;;;;;;5.22;0.90;;;;;;;23.73;38.62;100750.25;6003519;23;101462;-78
2022/09/01 11:07:31;;;;;;;4.20;1.15;;;;;;;23.68;37.82;100750.63;6025322;23;100667;-78
2022/09/01 11:10:12;;;;;;;4.35;1.15;;;;;;;23.85;38.57;100748.38;5998140;23;97164;-77
2022/09/01 11:12:56;;;;;;;3.05;1.23;;;;;;;23.89;38.69;100749.84;6028631;23;97903;-75
2022/09/01 11:15:38;;;;;;;2.58;1.30;;;;;;;23.80;38.97;100734.53;6028375;23;99779;-77
2022/09/01 11:18:15;;;;;;;2.15;1.10;;;;;;;23.80;39.30;100743.44;6029249;23;98406;-77
2022/09/01 11:20:43;;;;;;;2.78;1.23;;;;;;;23.62;39.70;100753.81;5979901;23;96757;-77
2022/09/01 11:23:12;;;;;;;3.72;1.10;;;;;;;23.60;39.50;100757.59;6007252;23;96858;-76
2022/09/01 11:25:45;;;;;;;4.43;1.50;;;;;;;23.40;39.48;100756.53;6006601;23;101352;-75
2022/09/01 11:28:40;;;;;;;3.50;0.88;;;;;;;23.03;37.22;100746.09;6008837;23;101483;-76
2022/09/01 11:31:07;;;;;;;4.78;1.10;;;;;;;23.13;37.90;100746.22;5992072;23;96952;-77
2022/09/01 11:34:09;;;;;;;2.60;1.13;;;;;;;23.06;38.21;100748.50;6005736;23;97260;-78
2022/09/01 11:36:46;;;;;;;4.55;1.50;;;;;;;23.18;39.60;100731.47;5933719;23;98004;-74
2022/09/01 11:39:31;;;;;;;7.38;1.63;;;;;;;23.44;41.33;100740.06;6031753;23;100705;-76
2022/09/01 11:42:06;;;;;;;4.63;0.85;;;;;;;23.41;38.61;100747.50;6034968;23;96646;-74
2022/09/01 11:44:51;;;;;;;4.15;1.25;;;;;;;23.44;38.67;100745.41;6032149;23;97385;-76